Time;durP1;ratioP1;P1;durP2;ratioP2;P2;SDS_P1;SDS_P2;PMS_P1;PMS_P2;Temp;Humidity;BMP_temperature;BMP_pressure;BME280_temperature;BME280_humidity;BME280_pressure;Samples;Min_cycle;Max_cycle;Signal;HPM_P1;HPM_P2
2022/12/07 00:02:17;;;;;;;10.20;3.40;;;9.70;83.30;;;;;;5964877;24;20205;-96
2022/12/07 00:09:08;;;;;;;5.93;2.33;;;9.70;83.30;;;;;;5962853;24;20214;-96
2022/12/07 00:11:58;;;;;;;6.80;2.33;;;9.70;83.20;;;;;;5965487;23;20267;-96
2022/12/07 00:14:53;;;;;;;8.87;2.60;;;9.60;83.00;;;;;;5989362;23;20178;-96
2022/12/07 00:30:07;;;;;;;10.40;2.90;;;9.40;82.10;;;;;;5975120;23;20630;-96
2022/12/07 00:36:26;;;;;;;8.43;2.83;;;9.40;82.30;;;;;;6141505;23;20198;-96
2022/12/07 00:39:05;;;;;;;6.47;2.67;;;9.30;81.90;;;;;;6137105;23;20182;-96
2022/12/07 00:41:37;;;;;;;6.93;2.80;;;9.30;81.70;;;;;;6136598;23;20198;-96
2022/12/07 00:44:21;;;;;;;9.03;2.57;;;9.20;81.60;;;;;;6140520;23;20778;-96
2022/12/07 00:49:53;;;;;;;;;;;;;;;;;;;;;
2022/12/07 00:52:41;;;;;;;8.07;2.17;;;9.10;82.90;;;;;;6140314;23;20184;-96
2022/12/07 00:55:29;;;;;;;9.33;2.97;;;9.10;83.60;;;;;;6141002;23;20232;-96
2022/12/07 00:58:16;;;;;;;9.23;2.93;;;9.10;84.20;;;;;;6144155;23;20181;-96
2022/12/07 01:00:55;;;;;;;6.83;2.17;;;9.00;84.20;;;;;;6142874;23;20174;-96
2022/12/07 01:03:47;;;;;;;5.13;2.17;;;9.00;84.60;;;;;;6143208;23;20253;-96
2022/12/07 01:06:47;;;;;;;5.33;2.00;;;9.00;85.20;;;;;;6142453;23;20517;-96
2022/12/07 01:12:19;;;;;;;6.43;2.37;;;9.00;85.20;;;;;;6142124;23;20189;-96
2022/12/07 01:15:33;;;;;;;7.97;2.70;;;9.00;85.00;;;;;;6142637;23;20170;-96
2022/12/07 01:18:04;;;;;;;6.23;2.17;;;9.00;85.20;;;;;;6142267;23;20185;-96
2022/12/07 01:20:42;;;;;;;5.17;2.27;;;9.00;84.80;;;;;;6146181;23;20193;-96
2022/12/07 01:23:35;;;;;;;8.00;2.53;;;9.00;85.20;;;;;;6146808;23;20173;-96
2022/12/07 01:26:22;;;;;;;4.60;2.00;;;9.00;85.60;;;;;;6148088;23;20174;-96
2022/12/07 01:29:16;;;;;;;7.93;2.17;;;9.00;85.50;;;;;;6147702;23;20213;-96
2022/12/07 01:32:18;;;;;;;7.83;2.30;;;9.00;85.90;;;;;;6147834;23;20185;-96
2022/12/07 01:35:00;;;;;;;6.10;2.10;;;8.90;86.20;;;;;;6145207;23;20174;-96
2022/12/07 01:38:26;;;;;;;8.10;2.50;;;8.90;86.00;;;;;;6142473;23;20253;-95
2022/12/07 01:41:43;;;;;;;8.20;2.43;;;8.90;86.70;;;;;;6052555;23;20212;-96
2022/12/07 01:44:47;;;;;;;6.63;1.97;;;8.90;86.60;;;;;;6139295;23;20184;-96
2022/12/07 01:47:39;;;;;;;7.87;2.70;;;9.00;86.50;;;;;;6135835;23;20185;-96
2022/12/07 01:50:20;;;;;;;5.20;2.10;;;8.90;86.40;;;;;;6135892;23;20178;-95
2022/12/07 01:53:02;;;;;;;9.80;2.37;;;8.90;86.20;;;;;;6136782;23;20244;-96
2022/12/07 01:55:41;;;;;;;7.80;2.73;;;8.90;86.00;;;;;;6137605;23;20178;-96
2022/12/07 01:58:29;;;;;;;8.83;2.70;;;8.90;85.70;;;;;;6149009;23;20178;-96
2022/12/07 02:01:18;;;;;;;8.30;2.50;;;8.90;85.60;;;;;;6145470;23;20188;-96
2022/12/07 02:04:10;;;;;;;10.07;2.73;;;8.90;85.70;;;;;;6146706;23;20170;-96
2022/12/07 02:07:04;;;;;;;7.63;2.20;;;8.90;86.00;;;;;;6147483;23;20172;-96
2022/12/07 02:09:44;;;;;;;5.67;1.70;;;8.90;86.10;;;;;;6148065;23;20184;-95
2022/12/07 02:12:28;;;;;;;7.30;1.83;;;8.80;85.70;;;;;;6154983;23;20193;-96
2022/12/07 02:15:33;;;;;;;8.03;2.87;;;8.80;85.60;;;;;;6148475;23;20176;-96
2022/12/07 02:18:13;;;;;;;5.57;1.67;;;8.80;86.00;;;;;;6148690;23;20366;-96
2022/12/07 02:21:14;;;;;;;5.83;1.80;;;8.80;86.00;;;;;;6149243;23;20174;-96
2022/12/07 02:24:15;;;;;;;6.00;1.60;;;8.70;86.50;;;;;;6150874;23;20207;-96
2022/12/07 02:27:30;;;;;;;4.83;1.70;;;8.70;86.60;;;;;;6151011;23;20171;-96
2022/12/07 02:30:21;;;;;;;4.43;1.60;;;8.70;86.70;;;;;;6149240;23;20194;-96
2022/12/07 02:39:25;;;;;;;9.17;2.83;;;8.70;86.70;;;;;;6147461;23;20180;-96
2022/12/07 02:42:12;;;;;;;5.27;2.20;;;8.70;86.80;;;;;;6144325;23;20249;-96
2022/12/07 02:45:11;;;;;;;6.07;2.23;;;8.70;86.80;;;;;;6145719;23;20174;-96
2022/12/07 02:47:59;;;;;;;5.80;1.97;;;8.70;87.10;;;;;;6146718;23;20173;-96
2022/12/07 02:50:47;;;;;;;8.00;2.73;;;8.60;87.00;;;;;;6148891;23;20170;-96
2022/12/07 02:53:38;;;;;;;12.03;2.90;;;8.60;86.60;;;;;;6152106;23;20191;-96
2022/12/07 02:56:25;;;;;;;8.97;2.33;;;8.70;87.40;;;;;;6150024;23;20176;-96
2022/12/07 02:59:17;;;;;;;6.17;2.20;;;8.70;87.20;;;;;;6147510;23;20178;-96
2022/12/07 03:02:24;;;;;;;6.47;2.60;;;8.60;87.40;;;;;;6149191;23;20188;-96
2022/12/07 03:05:30;;;;;;;5.10;1.90;;;8.60;88.00;;;;;;6147005;23;20194;-96
2022/12/07 03:08:33;;;;;;;5.87;2.10;;;8.60;88.30;;;;;;6146218;23;20199;-96
2022/12/07 03:11:43;;;;;;;6.40;2.00;;;8.60;88.60;;;;;;6149782;23;20169;-96
2022/12/07 03:14:40;;;;;;;5.23;1.90;;;8.60;88.80;;;;;;6150199;23;20194;-96
2022/12/07 03:17:37;;;;;;;4.73;1.70;;;8.50;89.00;;;;;;6146930;23;20217;-96
2022/12/07 03:20:37;;;;;;;5.73;1.67;;;8.60;89.80;;;;;;6146571;23;20177;-96
2022/12/07 03:23:16;;;;;;;8.43;2.17;;;8.60;89.80;;;;;;6059010;23;20204;-96
2022/12/07 03:25:54;;;;;;;2.73;1.43;;;8.60;89.60;;;;;;6057410;23;20177;-96
2022/12/07 03:29:05;;;;;;;5.97;1.83;;;8.60;89.30;;;;;;6056309;23;20564;-96
2022/12/07 03:34:42;;;;;;;7.03;2.23;;;8.60;89.20;;;;;;6143344;23;20209;-96
2022/12/07 03:37:35;;;;;;;7.60;2.77;;;8.60;89.60;;;;;;6136762;23;20502;-96
2022/12/07 03:40:21;;;;;;;6.27;2.33;;;8.70;89.30;;;;;;6135948;23;20174;-96
2022/12/07 03:42:59;;;;;;;4.97;1.77;;;8.60;88.90;;;;;;6136263;23;20258;-96
2022/12/07 03:45:38;;;;;;;5.27;1.90;;;8.60;89.00;;;;;;6137137;23;20178;-96
2022/12/07 03:48:16;;;;;;;7.53;2.17;;;8.70;89.10;;;;;;6138371;23;20185;-96
2022/12/07 03:50:50;;;;;;;7.53;2.80;;;8.70;88.70;;;;;;6137625;23;20261;-95
2022/12/07 03:53:25;;;;;;;8.10;2.20;;;8.70;88.70;;;;;;6137103;23;20174;-94
2022/12/07 03:55:56;;;;;;;5.23;1.87;;;8.60;89.20;;;;;;6137278;23;20627;-95
2022/12/07 03:58:42;;;;;;;5.07;1.73;;;8.60;89.70;;;;;;6136824;23;20980;-95
2022/12/07 04:01:18;;;;;;;8.07;2.17;;;8.60;90.40;;;;;;6138904;23;20250;-96
2022/12/07 04:03:48;;;;;;;6.77;1.90;;;8.70;90.40;;;;;;6137102;23;20268;-96
2022/12/07 04:06:26;;;;;;;6.00;1.60;;;8.70;90.40;;;;;;6137478;23;20202;-95
2022/12/07 04:09:00;;;;;;;6.73;2.17;;;8.70;90.70;;;;;;6138133;23;20237;-95
2022/12/07 04:20:12;;;;;;;5.23;1.50;;;8.80;90.30;;;;;;6223870;23;20174;-96
2022/12/07 04:26:02;;;;;;;5.57;1.57;;;8.90;90.30;;;;;;6221780;23;20727;-96
2022/12/07 04:28:48;;;;;;;8.50;2.03;;;8.90;90.10;;;;;;6229983;23;20197;-96
2022/12/07 04:31:30;;;;;;;7.00;1.80;;;8.90;90.10;;;;;;6227140;23;20183;-95
2022/12/07 04:37:17;;;;;;;6.03;1.80;;;8.90;89.60;;;;;;6229028;23;20175;-96
2022/12/07 04:39:57;;;;;;;7.43;1.97;;;8.80;88.40;;;;;;6229380;23;20224;-96
2022/12/07 04:42:49;;;;;;;3.67;1.37;;;8.80;88.50;;;;;;6229037;23;20219;-96
2022/12/07 04:45:36;;;;;;;15.03;3.87;;;8.80;88.70;;;;;;6228912;23;20174;-95
2022/12/07 04:48:23;;;;;;;4.80;1.57;;;8.80;88.40;;;;;;6228962;23;20195;-96
2022/12/07 04:53:52;;;;;;;6.87;1.80;;;8.80;88.60;;;;;;6220135;23;20210;-96
2022/12/07 04:56:56;;;;;;;16.73;4.50;;;8.80;88.50;;;;;;6226596;23;20173;-95
2022/12/07 04:59:46;;;;;;;7.60;2.33;;;8.80;88.50;;;;;;6226393;23;20226;-96
2022/12/07 05:02:29;;;;;;;10.60;3.20;;;8.70;88.10;;;;;;6224606;23;20225;-96
2022/12/07 05:05:13;;;;;;;10.13;2.57;;;8.70;88.00;;;;;;6224413;23;20202;-96
2022/12/07 05:08:12;;;;;;;7.90;2.60;;;8.60;87.90;;;;;;6234519;23;20152;-96
2022/12/07 05:10:42;;;;;;;4.50;1.60;;;8.60;88.10;;;;;;6236777;22;20160;-96
2022/12/07 05:16:48;;;;;;;8.47;2.33;;;8.50;89.10;;;;;;6230487;23;20241;-96
2022/12/07 05:19:19;;;;;;;10.93;2.67;;;8.50;88.70;;;;;;6227038;23;20172;-96
2022/12/07 05:21:49;;;;;;;7.60;2.27;;;8.50;89.40;;;;;;6227327;23;20217;-96
2022/12/07 05:24:39;;;;;;;10.40;2.70;;;8.50;88.80;;;;;;6227810;23;20177;-96
2022/12/07 05:27:13;;;;;;;8.30;2.27;;;8.50;89.80;;;;;;6230611;23;20228;-96
2022/12/07 05:29:41;;;;;;;8.73;2.40;;;8.50;89.20;;;;;;6228994;23;20174;-96
2022/12/07 05:32:27;;;;;;;6.73;1.97;;;8.50;89.20;;;;;;6227203;23;20176;-96
2022/12/07 05:38:06;;;;;;;6.77;2.10;;;8.50;90.00;;;;;;6225317;23;20172;-96
2022/12/07 05:40:38;;;;;;;7.00;1.87;;;8.50;90.00;;;;;;6228030;23;20487;-96
2022/12/07 05:43:12;;;;;;;8.83;2.23;;;8.50;89.90;;;;;;6228486;23;20202;-96
2022/12/07 05:45:41;;;;;;;15.13;4.17;;;8.50;89.90;;;;;;6227455;23;20177;-96
2022/12/07 05:54:21;;;;;;;12.80;3.67;;;8.50;89.60;;;;;;6220353;23;20903;-96
2022/12/07 05:56:51;;;;;;;6.63;2.20;;;8.50;89.50;;;;;;6226367;23;20186;-96
2022/12/07 05:59:37;;;;;;;5.83;2.40;;;8.50;89.00;;;;;;6227046;23;20613;-95
2022/12/07 06:02:11;;;;;;;11.93;3.00;;;8.50;89.20;;;;;;6225887;23;20174;-95
2022/12/07 06:05:12;;;;;;;9.80;2.33;;;8.50;89.60;;;;;;6224366;23;20203;-96
2022/12/07 06:12:33;;;;;;;6.50;2.00;;;8.50;90.20;;;;;;6222769;23;20181;-96
2022/12/07 06:13:38;;;;;;;5.80;1.87;;;8.50;90.20;;;;;;6225269;23;20163;-96
2022/12/07 06:16:13;;;;;;;8.33;2.30;;;8.50;90.20;;;;;;6226585;23;20193;-96
2022/12/07 06:19:14;;;;;;;7.47;2.37;;;8.50;90.50;;;;;;6224853;23;20181;-96
2022/12/07 06:21:52;;;;;;;11.13;2.83;;;8.50;90.70;;;;;;6225043;23;20168;-96
2022/12/07 06:27:15;;;;;;;7.47;2.23;;;8.60;90.50;;;;;;6228353;23;20176;-96
2022/12/07 06:29:51;;;;;;;8.23;2.37;;;8.60;90.40;;;;;;6225209;23;20165;-96
2022/12/07 06:32:27;;;;;;;6.63;2.23;;;8.60;90.50;;;;;;6227158;23;20624;-96
2022/12/07 06:35:02;;;;;;;6.90;2.43;;;8.60;90.30;;;;;;6220419;23;20175;-95
2022/12/07 06:37:34;;;;;;;13.47;3.20;;;8.60;90.40;;;;;;6237408;23;20159;-96
2022/12/07 06:40:11;;;;;;;8.27;2.73;;;8.60;90.20;;;;;;6238990;22;20167;-95
2022/12/07 06:42:47;;;;;;;7.87;2.73;;;8.60;90.30;;;;;;6236882;22;20207;-96
2022/12/07 06:45:20;;;;;;;6.87;1.90;;;8.60;90.20;;;;;;6219813;23;20674;-95
2022/12/07 06:47:51;;;;;;;6.73;2.03;;;8.70;90.20;;;;;;6220301;23;20195;-95
2022/12/07 06:50:26;;;;;;;5.23;1.93;;;8.60;90.00;;;;;;6218519;23;20287;-96
2022/12/07 06:53:08;;;;;;;12.37;3.60;;;8.70;90.00;;;;;;6216451;23;20249;-96
2022/12/07 06:56:10;;;;;;;8.60;2.53;;;8.60;89.70;;;;;;6222713;22;20462;-96
2022/12/07 06:58:43;;;;;;;11.33;2.87;;;8.60;89.80;;;;;;6212578;23;20642;-96
2022/12/07 07:01:19;;;;;;;12.43;3.67;;;8.60;89.40;;;;;;6218258;23;20172;-96
2022/12/07 07:03:49;;;;;;;15.77;3.43;;;8.60;89.20;;;;;;6226298;23;20206;-96
2022/12/07 07:06:27;;;;;;;12.50;2.90;;;8.60;89.20;;;;;;6218523;23;20171;-96
2022/12/07 07:09:09;;;;;;;11.43;3.83;;;8.60;89.50;;;;;;6214581;23;20176;-96
2022/12/07 07:11:51;;;;;;;6.53;2.40;;;8.60;89.70;;;;;;6217578;23;20258;-96
2022/12/07 07:14:22;;;;;;;8.83;2.77;;;8.60;89.50;;;;;;6215517;23;20255;-96
2022/12/07 07:16:54;;;;;;;13.47;3.87;;;8.60;89.30;;;;;;6212669;23;20198;-96
2022/12/07 07:19:21;;;;;;;11.27;3.80;;;8.60;89.80;;;;;;6211198;23;20651;-95
2022/12/07 07:21:49;;;;;;;13.97;4.50;;;8.60;89.80;;;;;;6211796;23;20260;-95
2022/12/07 07:24:16;;;;;;;15.90;4.50;;;8.60;90.00;;;;;;6222654;23;20196;-95
2022/12/07 07:26:49;;;;;;;14.17;4.60;;;8.60;90.20;;;;;;6230012;23;20172;-94
2022/12/07 07:29:18;;;;;;;6.07;2.70;;;8.50;90.30;;;;;;6218085;23;20172;-95
2022/12/07 07:31:48;;;;;;;13.53;4.37;;;8.60;90.40;;;;;;6214367;23;20242;-95
2022/12/07 07:34:17;;;;;;;9.93;3.27;;;8.60;90.50;;;;;;6212503;23;20253;-94
2022/12/07 07:39:52;;;;;;;13.90;3.80;;;8.60;90.80;;;;;;6205112;23;20218;-96
2022/12/07 07:42:22;;;;;;;9.97;3.40;;;8.60;90.60;;;;;;6215217;23;20182;-95
2022/12/07 07:44:49;;;;;;;10.43;3.03;;;8.60;90.80;;;;;;6214139;23;20200;-95
2022/12/07 07:47:19;;;;;;;10.80;3.60;;;8.60;90.70;;;;;;6213839;23;20502;-96
2022/12/07 07:49:57;;;;;;;9.27;3.20;;;8.60;90.80;;;;;;6215317;23;20169;-95
2022/12/07 07:52:31;;;;;;;10.27;3.10;;;8.60;91.00;;;;;;6216382;23;20714;-95
2022/12/07 07:55:03;;;;;;;10.53;3.50;;;8.60;91.00;;;;;;6215552;23;20177;-95
2022/12/07 07:57:33;;;;;;;10.47;3.17;;;8.60;91.00;;;;;;6214674;23;20235;-95
2022/12/07 08:00:12;;;;;;;7.37;3.10;;;8.60;91.00;;;;;;6214410;23;20940;-95
2022/12/07 08:02:42;;;;;;;6.17;2.80;;;8.70;91.10;;;;;;6216244;23;20254;-94
2022/12/07 08:05:09;;;;;;;7.30;3.00;;;8.70;90.90;;;;;;6217374;23;20165;-94
2022/12/07 08:07:37;;;;;;;10.87;3.67;;;8.70;90.80;;;;;;6216896;23;20230;-95
2022/12/07 08:10:07;;;;;;;8.37;2.77;;;8.70;90.80;;;;;;6217786;23;20177;-95
2022/12/07 08:15:26;;;;;;;11.70;3.93;;;8.70;91.10;;;;;;6215654;23;20168;-94
2022/12/07 08:17:57;;;;;;;13.17;4.30;;;8.70;91.00;;;;;;6219407;23;20212;-96
2022/12/07 08:20:38;;;;;;;11.00;3.90;;;8.70;90.80;;;;;;6220901;23;20164;-95
2022/12/07 08:23:06;;;;;;;8.33;3.07;;;8.70;90.80;;;;;;6224002;23;20194;-95
2022/12/07 08:25:37;;;;;;;13.40;4.23;;;8.70;90.80;;;;;;6216677;23;20666;-96
2022/12/07 08:28:08;;;;;;;13.17;4.20;;;8.70;90.90;;;;;;6212595;23;20231;-96
2022/12/07 08:30:36;;;;;;;11.73;3.40;;;8.70;91.00;;;;;;6213785;23;20167;-95
2022/12/07 08:33:03;;;;;;;9.97;3.57;;;8.60;90.90;;;;;;6213067;23;20176;-95
2022/12/07 08:35:33;;;;;;;13.70;3.60;;;8.70;91.10;;;;;;6214817;23;20621;-94
2022/12/07 08:38:13;;;;;;;14.67;4.37;;;8.70;91.10;;;;;;6226567;23;20643;-94
2022/12/07 08:40:41;;;;;;;12.00;3.30;;;8.70;91.40;;;;;;6226223;23;20188;-94
2022/12/07 08:43:12;;;;;;;13.43;3.80;;;8.70;91.20;;;;;;6226883;23;20192;-96
2022/12/07 08:45:55;;;;;;;12.93;3.57;;;8.70;91.60;;;;;;6228084;23;20182;-95
2022/12/07 08:48:27;;;;;;;9.97;2.80;;;8.80;91.80;;;;;;6225882;23;20195;-95
2022/12/07 08:51:03;;;;;;;10.67;3.30;;;8.80;91.80;;;;;;6223351;23;20876;-94
2022/12/07 08:53:32;;;;;;;8.30;2.83;;;8.80;91.90;;;;;;6225235;23;20175;-95
2022/12/07 08:55:59;;;;;;;8.20;2.83;;;8.80;91.80;;;;;;6225117;23;20174;-95
2022/12/07 08:58:41;;;;;;;7.77;2.50;;;8.80;91.60;;;;;;6223971;23;20613;-95
2022/12/07 09:01:13;;;;;;;16.07;4.70;;;8.90;92.00;;;;;;6211261;23;20625;-93
2022/12/07 09:03:40;;;;;;;16.60;4.73;;;8.90;91.90;;;;;;6211224;23;20210;-94
2022/12/07 09:06:08;;;;;;;16.23;4.70;;;8.90;91.60;;;;;;6212510;23;20237;-93
2022/12/07 09:08:52;;;;;;;12.57;4.07;;;8.90;91.40;;;;;;6215231;23;20182;-94
2022/12/07 09:11:19;;;;;;;12.53;3.80;;;9.00;91.50;;;;;;6212203;23;20168;-94
2022/12/07 09:13:48;;;;;;;14.40;3.90;;;9.00;91.30;;;;;;6210850;23;20675;-96
2022/12/07 09:16:18;;;;;;;20.67;5.90;;;9.00;91.30;;;;;;6208771;23;20259;-93
2022/12/07 09:18:50;;;;;;;20.10;5.17;;;9.00;91.30;;;;;;6209289;23;20182;-94
2022/12/07 09:21:20;;;;;;;21.73;5.33;;;9.10;91.30;;;;;;6209108;23;20168;-95
2022/12/07 09:23:52;;;;;;;19.77;5.13;;;9.10;91.30;;;;;;6216226;23;20246;-94
2022/12/07 09:26:26;;;;;;;13.30;3.73;;;9.10;91.40;;;;;;6223213;23;20176;-95
2022/12/07 09:29:01;;;;;;;11.83;3.00;;;9.20;91.40;;;;;;6225520;23;20176;-94
2022/12/07 09:31:36;;;;;;;9.40;2.73;;;9.20;91.60;;;;;;6224618;23;20175;-94
2022/12/07 09:34:09;;;;;;;11.30;3.57;;;9.20;91.90;;;;;;6223516;23;20306;-94
2022/12/07 09:36:37;;;;;;;12.50;2.80;;;9.20;92.10;;;;;;6229449;23;20180;-94
2022/12/07 09:39:07;;;;;;;14.53;4.17;;;9.20;92.00;;;;;;6214198;23;20303;-94
2022/12/07 09:41:38;;;;;;;10.00;2.83;;;9.30;92.20;;;;;;6212271;23;20171;-94
2022/12/07 09:44:12;;;;;;;6.13;2.07;;;9.30;91.80;;;;;;6227579;23;20216;-95
2022/12/07 09:46:44;;;;;;;10.97;2.53;;;9.30;91.70;;;;;;6227997;23;20170;-96
2022/12/07 09:49:20;;;;;;;15.40;4.37;;;9.40;91.70;;;;;;6232596;23;20192;-96
2022/12/07 09:52:00;;;;;;;11.67;3.27;;;9.40;91.70;;;;;;6233197;23;20178;-96
2022/12/07 09:54:29;;;;;;;8.50;2.20;;;9.40;91.70;;;;;;6228260;23;20180;-96
2022/12/07 09:56:56;;;;;;;11.47;2.60;;;9.50;91.50;;;;;;6227226;23;20184;-96
2022/12/07 09:59:27;;;;;;;13.10;2.97;;;9.50;91.60;;;;;;6220136;23;20172;-95
2022/12/07 10:02:24;;;;;;;12.53;3.73;;;9.60;92.00;;;;;;6218019;23;20175;-94
2022/12/07 10:04:52;;;;;;;12.17;3.37;;;9.60;91.70;;;;;;6218990;23;20196;-94
2022/12/07 10:33:00;;;;;;;11.80;4.87;;;9.90;91.80;;;;;;6222522;23;20186;-96
2022/12/07 10:35:43;;;;;;;10.33;4.43;;;10.00;91.20;;;;;;6224222;23;20184;-95
2022/12/07 10:41:43;;;;;;;11.00;3.80;;;10.00;91.20;;;;;;6233412;23;20236;-96
2022/12/07 10:44:27;;;;;;;13.87;3.80;;;10.10;91.50;;;;;;6226753;23;20196;-96
2022/12/07 10:47:33;;;;;;;8.70;2.47;;;10.10;91.20;;;;;;6230143;23;20180;-95
2022/12/07 10:50:38;;;;;;;10.00;4.30;;;10.10;91.40;;;;;;6219011;23;20694;-93
2022/12/07 10:53:26;;;;;;;6.23;2.03;;;10.20;91.50;;;;;;6198329;23;20172;-95
2022/12/07 10:56:30;;;;;;;8.97;2.60;;;10.20;91.10;;;;;;6226780;23;20291;-95
2022/12/07 11:02:25;;;;;;;6.60;1.80;;;10.30;90.60;;;;;;6227574;23;20200;-94
2022/12/07 11:05:04;;;;;;;7.63;1.93;;;10.40;90.40;;;;;;6221407;23;20200;-95
2022/12/07 11:07:44;;;;;;;6.20;1.90;;;10.40;90.60;;;;;;6222581;23;20168;-95
2022/12/07 11:10:19;;;;;;;4.67;1.37;;;10.50;90.80;;;;;;6225523;23;20260;-94
2022/12/07 11:13:00;;;;;;;10.63;2.53;;;10.60;90.40;;;;;;6222485;23;20172;-95
2022/12/07 11:15:56;;;;;;;4.27;1.30;;;10.60;90.00;;;;;;6220539;23;20178;-94
2022/12/07 11:18:50;;;;;;;7.20;2.07;;;10.70;90.40;;;;;;6221516;23;20176;-94
2022/12/07 11:21:25;;;;;;;8.97;2.30;;;10.80;90.00;;;;;;6228694;23;20224;-94
2022/12/07 11:24:02;;;;;;;5.97;1.93;;;10.90;89.40;;;;;;6235835;22;20223;-95
2022/12/07 11:26:49;;;;;;;7.53;1.77;;;11.00;88.40;;;;;;6225021;23;20504;-95
2022/12/07 11:29:40;;;;;;;12.30;2.60;;;11.10;85.40;;;;;;6221340;23;20230;-95
2022/12/07 11:32:22;;;;;;;8.10;1.60;;;11.10;84.30;;;;;;6221169;23;20177;-94
2022/12/07 11:35:00;;;;;;;7.47;2.20;;;11.20;84.10;;;;;;6225755;23;20176;-94
2022/12/07 11:37:52;;;;;;;9.57;2.03;;;11.20;83.70;;;;;;6225252;23;20176;-94
2022/12/07 11:40:37;;;;;;;9.30;1.83;;;11.20;83.80;;;;;;6229033;23;20165;-94
2022/12/07 11:43:21;;;;;;;7.70;2.30;;;11.20;84.40;;;;;;6226933;23;20215;-96
2022/12/07 11:46:00;;;;;;;10.23;2.40;;;11.20;84.50;;;;;;6225698;23;20710;-96
2022/12/07 11:48:38;;;;;;;8.47;2.17;;;11.20;85.10;;;;;;6225910;23;20179;-93
2022/12/07 11:51:22;;;;;;;6.93;1.63;;;11.20;85.40;;;;;;6226798;23;20168;-95
2022/12/07 11:53:59;;;;;;;9.33;2.53;;;11.20;85.50;;;;;;6227461;23;20175;-94
2022/12/07 11:56:37;;;;;;;11.00;2.83;;;11.20;85.90;;;;;;6229639;23;20189;-94
2022/12/07 11:59:27;;;;;;;4.03;1.63;;;11.20;86.20;;;;;;6231197;23;20175;-94
2022/12/07 12:01:58;;;;;;;5.43;1.50;;;11.20;86.50;;;;;;6227496;23;20572;-93
2022/12/07 12:04:39;;;;;;;4.67;1.50;;;11.20;86.60;;;;;;6224165;23;20203;-94
2022/12/07 12:07:13;;;;;;;3.20;1.30;;;11.20;86.60;;;;;;6232260;23;20165;-94
2022/12/07 12:10:04;;;;;;;7.50;2.40;;;11.20;86.80;;;;;;6234052;23;20188;-96
2022/12/07 12:13:13;;;;;;;6.47;2.20;;;11.20;86.70;;;;;;6234740;23;20182;-96
2022/12/07 12:22:19;;;;;;;15.70;3.30;;;11.20;88.00;;;;;;6241217;22;20156;-95
2022/12/07 12:25:25;;;;;;;7.13;1.87;;;11.20;87.40;;;;;;6236173;23;20214;-96
2022/12/07 12:27:59;;;;;;;9.63;2.57;;;11.30;86.80;;;;;;6235183;23;20183;-95
2022/12/07 12:30:34;;;;;;;7.43;1.97;;;11.30;86.60;;;;;;6226058;23;20223;-96
2022/12/07 12:33:15;;;;;;;7.37;2.17;;;11.30;87.40;;;;;;6219483;23;20242;-96
2022/12/07 12:35:45;;;;;;;6.53;2.13;;;11.30;87.10;;;;;;6221058;23;20168;-96
2022/12/07 12:38:34;;;;;;;10.03;3.00;;;11.30;85.80;;;;;;6220902;23;20179;-96
2022/12/07 12:41:04;;;;;;;8.60;2.47;;;11.40;85.60;;;;;;6217427;23;20186;-94
2022/12/07 12:43:51;;;;;;;6.47;2.03;;;11.40;84.30;;;;;;6221586;23;20165;-93
2022/12/07 12:46:50;;;;;;;4.97;1.80;;;11.40;83.90;;;;;;6217410;23;20944;-94
2022/12/07 12:50:00;;;;;;;7.57;2.20;;;11.50;84.00;;;;;;6216268;23;20172;-94
2022/12/07 12:52:54;;;;;;;7.13;2.00;;;11.50;82.90;;;;;;6215850;23;20184;-93
2022/12/07 12:55:58;;;;;;;10.00;3.20;;;11.50;82.70;;;;;;6218043;23;20190;-95
2022/12/07 12:58:41;;;;;;;7.57;2.03;;;11.60;82.40;;;;;;6213191;23;20742;-96
2022/12/07 13:01:48;;;;;;;5.70;1.83;;;11.60;82.00;;;;;;6219947;23;20210;-94
2022/12/07 13:05:10;;;;;;;5.43;1.70;;;11.50;82.20;;;;;;6219735;23;20194;-94
2022/12/07 13:08:00;;;;;;;10.47;2.50;;;11.60;81.50;;;;;;6217163;23;20173;-94
2022/12/07 13:10:40;;;;;;;7.43;2.33;;;11.50;81.70;;;;;;6217925;23;20169;-94
2022/12/07 13:13:33;;;;;;;8.17;2.47;;;11.60;81.50;;;;;;6215837;23;20176;-93
2022/12/07 13:16:50;;;;;;;8.97;2.57;;;11.50;80.80;;;;;;6218962;23;20203;-95
2022/12/07 13:20:01;;;;;;;11.67;2.83;;;11.50;79.90;;;;;;6223789;23;20183;-96
2022/12/07 13:22:52;;;;;;;5.67;1.90;;;11.40;79.20;;;;;;6236932;22;20648;-95
2022/12/07 13:25:28;;;;;;;7.77;1.77;;;11.40;79.50;;;;;;6218416;23;20483;-95
2022/12/07 13:28:01;;;;;;;7.63;2.23;;;11.30;79.50;;;;;;6219096;23;20176;-96
2022/12/07 13:30:47;;;;;;;11.97;3.20;;;11.30;79.40;;;;;;6222875;23;20184;-94
2022/12/07 13:33:19;;;;;;;9.20;2.63;;;11.30;79.40;;;;;;6221499;23;20234;-94
2022/12/07 13:35:49;;;;;;;14.47;3.60;;;11.20;79.40;;;;;;6218036;23;20176;-94
2022/12/07 13:38:33;;;;;;;7.67;2.23;;;11.20;79.20;;;;;;6215246;23;20175;-94
2022/12/07 13:41:13;;;;;;;10.37;2.40;;;11.20;79.20;;;;;;6214078;23;20176;-94
2022/12/07 13:43:58;;;;;;;7.97;2.20;;;11.20;79.70;;;;;;6215959;23;20219;-95
2022/12/07 13:46:54;;;;;;;7.10;2.33;;;11.20;80.10;;;;;;6214889;23;20175;-93
2022/12/07 13:49:24;;;;;;;13.87;3.47;;;11.20;81.00;;;;;;6216399;23;20169;-94
2022/12/07 13:52:13;;;;;;;10.23;3.67;;;11.10;81.30;;;;;;6213264;23;20184;-95
2022/12/07 13:54:50;;;;;;;7.40;2.50;;;11.10;80.90;;;;;;6213750;23;20168;-94
2022/12/07 13:57:34;;;;;;;7.60;2.37;;;11.10;81.40;;;;;;6214076;23;20235;-94
2022/12/07 14:00:02;;;;;;;6.87;2.23;;;11.20;81.70;;;;;;6213664;23;20177;-94
2022/12/07 14:02:37;;;;;;;14.13;3.70;;;11.20;82.30;;;;;;6213455;23;20180;-95
2022/12/07 14:05:11;;;;;;;13.77;3.07;;;11.20;82.30;;;;;;6213832;23;20320;-95
2022/12/07 14:07:50;;;;;;;12.93;3.03;;;11.20;82.90;;;;;;6215593;23;20176;-95
2022/12/07 14:10:31;;;;;;;13.70;2.93;;;11.20;82.60;;;;;;6215400;23;20339;-93
2022/12/07 14:13:01;;;;;;;19.20;4.67;;;11.20;81.70;;;;;;6231266;22;20172;-94
2022/12/07 14:15:31;;;;;;;9.97;2.83;;;11.20;81.70;;;;;;6237434;22;20172;-94
2022/12/07 14:18:04;;;;;;;10.93;3.37;;;11.20;80.90;;;;;;6241910;22;20176;-95
2022/12/07 14:20:39;;;;;;;6.87;2.30;;;11.20;79.90;;;;;;6224661;22;20176;-95
2022/12/07 14:23:28;;;;;;;11.20;3.60;;;11.20;79.60;;;;;;6216944;23;20171;-94
2022/12/07 14:26:08;;;;;;;6.37;1.63;;;11.20;79.60;;;;;;6216755;23;20877;-94
2022/12/07 14:28:43;;;;;;;6.50;2.33;;;11.10;79.60;;;;;;6216548;23;20637;-94
2022/12/07 14:31:24;;;;;;;8.93;2.43;;;11.10;79.40;;;;;;6216822;23;20179;-94
2022/12/07 14:33:53;;;;;;;8.17;2.67;;;11.10;78.80;;;;;;6215215;23;20238;-95
2022/12/07 14:36:32;;;;;;;5.67;2.03;;;11.10;79.10;;;;;;6214689;23;20172;-95
2022/12/07 14:39:00;;;;;;;6.10;2.33;;;11.10;78.80;;;;;;6220446;23;20172;-95
2022/12/07 14:44:17;;;;;;;11.17;3.00;;;11.00;79.00;;;;;;6224176;23;20171;-95
2022/12/07 14:46:48;;;;;;;7.63;2.40;;;11.00;78.90;;;;;;6224964;23;20284;-95
2022/12/07 14:49:16;;;;;;;7.37;2.77;;;11.00;78.60;;;;;;6221638;23;20176;-95
2022/12/07 14:51:44;;;;;;;11.30;3.33;;;11.00;78.60;;;;;;6216395;23;20795;-94
2022/12/07 14:54:18;;;;;;;13.60;4.10;;;11.00;78.60;;;;;;6213475;23;20520;-95
2022/12/07 14:56:51;;;;;;;7.70;2.30;;;11.00;78.60;;;;;;6214619;23;20836;-95
2022/12/07 14:59:20;;;;;;;12.90;3.23;;;10.90;78.90;;;;;;6213550;23;20220;-96
2022/12/07 15:01:50;;;;;;;12.70;3.60;;;10.90;80.00;;;;;;6214919;23;20275;-96
2022/12/07 15:04:17;;;;;;;9.53;2.73;;;10.90;79.00;;;;;;6217097;23;20172;-95
2022/12/07 15:06:58;;;;;;;9.23;2.43;;;10.90;79.10;;;;;;6217292;23;20196;-96
2022/12/07 15:09:30;;;;;;;8.00;2.13;;;10.90;78.90;;;;;;6220118;23;20219;-96
2022/12/07 15:12:07;;;;;;;7.50;2.47;;;10.90;79.00;;;;;;6225246;23;20179;-96
2022/12/07 15:14:35;;;;;;;18.27;4.43;;;10.90;79.00;;;;;;6239095;22;20179;-96
2022/12/07 15:17:10;;;;;;;11.73;3.50;;;10.80;79.20;;;;;;6238412;22;20161;-96
2022/12/07 15:19:43;;;;;;;8.27;2.80;;;10.80;79.40;;;;;;6224669;22;20172;-96
2022/12/07 15:25:33;;;;;;;6.63;2.57;;;10.80;80.10;;;;;;6211028;23;20199;-96
2022/12/07 15:31:55;;;;;;;15.07;3.50;;;10.70;79.60;;;;;;6167955;23;20188;-96
2022/12/07 15:34:51;;;;;;;9.10;2.70;;;10.70;79.40;;;;;;6211198;23;20177;-95
2022/12/07 15:37:25;;;;;;;7.30;2.67;;;10.70;79.70;;;;;;6219270;23;20514;-95
2022/12/07 15:42:57;;;;;;;8.67;2.93;;;10.70;79.80;;;;;;6220474;23;20255;-96
2022/12/07 15:45:44;;;;;;;9.33;2.93;;;10.60;80.00;;;;;;6221314;23;20197;-96
2022/12/07 15:48:34;;;;;;;8.53;2.87;;;10.60;79.80;;;;;;6219790;23;20176;-96
2022/12/07 17:09:11;;;;;;;;;;;;;;;;;;;;;
2022/12/07 17:15:47;;;;;;;;;;;;;;;;;;;;;
2022/12/07 17:19:04;;;;;;;7.13;3.67;;;9.50;83.40;;;;;;6166562;23;20178;-96
2022/12/07 17:35:31;;;;;;;10.60;4.23;;;9.50;84.80;;;;;;6005426;23;20190;-96
2022/12/07 17:44:47;;;;;;;8.67;3.17;;;9.40;86.10;;;;;;6098813;23;20227;-96
2022/12/07 17:53:21;;;;;;;14.70;3.90;;;9.50;87.30;;;;;;6098052;23;20182;-96
2022/12/07 17:56:07;;;;;;;9.37;3.80;;;9.50;87.10;;;;;;6154197;23;20897;-96
2022/12/07 18:05:30;;;;;;;6.87;2.80;;;9.50;87.80;;;;;;6196167;23;20553;-96
2022/12/07 18:11:55;;;;;;;6.30;1.93;;;9.50;87.70;;;;;;6077265;23;20952;-96
2022/12/07 18:21:20;;;;;;;9.70;3.50;;;9.50;87.50;;;;;;6202418;23;20231;-96